createdAt,value
2022-12-05T00:01:25.279Z,14.77
2022-12-05T00:03:55.441Z,14.93
2022-12-05T00:06:24.285Z,14.57
2022-12-05T00:08:52.029Z,13.43
2022-12-05T00:11:25.485Z,13.03
2022-12-05T00:13:54.544Z,13.90
2022-12-05T00:16:25.299Z,15.23
2022-12-05T00:18:53.274Z,11.43
2022-12-05T00:21:24.097Z,14.60
2022-12-05T00:23:53.791Z,13.47
2022-12-05T00:26:22.118Z,14.43
2022-12-05T00:28:49.849Z,12.60
2022-12-05T00:31:21.009Z,14.60
2022-12-05T00:33:49.506Z,15.00
2022-12-05T00:36:19.666Z,15.77
2022-12-05T00:38:47.399Z,14.87
2022-12-05T00:41:20.535Z,13.40
2022-12-05T00:43:48.250Z,14.13
2022-12-05T00:46:18.297Z,13.83
2022-12-05T00:48:46.290Z,14.20
2022-12-05T00:51:15.328Z,14.30
2022-12-05T00:53:43.982Z,14.60
2022-12-05T00:56:14.291Z,15.50
2022-12-05T00:58:42.222Z,14.07
2022-12-05T01:01:15.259Z,14.77
2022-12-05T01:03:43.704Z,13.23
2022-12-05T01:06:11.984Z,14.83
2022-12-05T01:08:39.566Z,15.47
2022-12-05T01:11:08.782Z,12.97
2022-12-05T01:13:36.393Z,15.07
2022-12-05T01:16:04.486Z,14.33
2022-12-05T01:18:32.306Z,14.60
2022-12-05T01:21:00.101Z,13.30
2022-12-05T01:23:27.592Z,13.30
2022-12-05T01:25:54.790Z,14.60
2022-12-05T01:28:22.089Z,14.47
2022-12-05T01:30:50.386Z,14.02
2022-12-05T01:33:18.140Z,13.77
2022-12-05T01:35:45.936Z,12.90
2022-12-05T01:38:13.697Z,12.93
2022-12-05T01:40:41.350Z,12.67
2022-12-05T01:43:18.499Z,12.07
2022-12-05T01:45:46.720Z,12.10
2022-12-05T01:48:32.410Z,13.50
2022-12-05T01:51:00.664Z,12.90
2022-12-05T01:53:29.522Z,13.03
2022-12-05T01:55:57.523Z,14.27
2022-12-05T01:58:31.213Z,14.10
2022-12-05T02:00:58.705Z,12.83
2022-12-05T02:03:26.337Z,15.23
2022-12-05T02:05:56.619Z,14.23
2022-12-05T02:08:24.377Z,13.97
2022-12-05T02:10:54.799Z,15.13
2022-12-05T02:13:45.438Z,15.13
2022-12-05T02:16:36.987Z,13.77
2022-12-05T02:19:19.226Z,13.47
2022-12-05T02:22:20.698Z,14.73
2022-12-05T02:25:00.286Z,13.10
2022-12-05T02:28:08.253Z,13.60
2022-12-05T02:31:18.982Z,12.30
2022-12-05T02:33:52.883Z,12.30
2022-12-05T02:36:27.679Z,13.40
2022-12-05T02:38:57.837Z,13.93
2022-12-05T02:41:41.024Z,13.43
2022-12-05T02:44:14.935Z,14.03
2022-12-05T02:46:46.704Z,15.63
2022-12-05T02:49:19.902Z,15.53
2022-12-05T02:51:51.881Z,13.73
2022-12-05T02:54:24.253Z,13.80
2022-12-05T02:56:53.410Z,14.43
2022-12-05T02:59:23.579Z,13.20
2022-12-05T03:01:51.712Z,13.57
2022-12-05T03:04:22.405Z,13.13
2022-12-05T03:06:52.828Z,13.20
2022-12-05T03:09:24.887Z,13.70
2022-12-05T03:12:02.995Z,11.23
2022-12-05T03:14:40.110Z,11.30
2022-12-05T03:17:11.972Z,12.70
2022-12-05T03:19:58.760Z,12.03
2022-12-05T03:22:31.082Z,12.67
2022-12-05T03:24:59.626Z,12.10
2022-12-05T03:27:38.942Z,12.47
2022-12-05T03:30:13.355Z,11.47
2022-12-05T03:33:18.651Z,12.57
2022-12-05T03:35:59.690Z,12.07
2022-12-05T03:38:53.942Z,11.83
2022-12-05T03:41:42.971Z,11.20
2022-12-05T03:44:13.617Z,11.70
2022-12-05T03:46:44.975Z,13.37
2022-12-05T03:49:26.896Z,11.70
2022-12-05T03:52:07.232Z,13.03
2022-12-05T03:54:43.302Z,11.90
2022-12-05T03:57:24.361Z,11.47
2022-12-05T04:00:14.379Z,13.53
2022-12-05T04:02:56.118Z,13.40
2022-12-05T04:05:40.408Z,12.83
2022-12-05T04:08:16.127Z,12.60
2022-12-05T04:10:49.706Z,12.40
2022-12-05T04:13:30.714Z,13.20
2022-12-05T04:16:32.290Z,10.67
2022-12-05T04:19:12.003Z,12.87
2022-12-05T04:21:48.950Z,12.43
2022-12-05T04:24:42.007Z,12.70
2022-12-05T04:27:37.362Z,12.73
2022-12-05T04:30:10.782Z,11.87
2022-12-05T04:33:00.583Z,11.17
2022-12-05T04:35:37.689Z,11.00
2022-12-05T04:38:17.425Z,10.70
2022-12-05T04:40:54.612Z,11.67
2022-12-05T04:43:24.706Z,10.77
2022-12-05T04:45:56.399Z,12.23
2022-12-05T04:48:26.200Z,10.77
2022-12-05T04:50:56.648Z,10.87
2022-12-05T04:53:28.199Z,11.20
2022-12-05T04:55:59.170Z,11.30
2022-12-05T04:58:28.163Z,12.73
2022-12-05T05:01:13.430Z,13.50
2022-12-05T05:04:13.346Z,12.03
2022-12-05T05:06:41.981Z,12.07
2022-12-05T05:09:10.423Z,12.03
2022-12-05T05:11:38.036Z,13.70
2022-12-05T05:14:05.551Z,13.97
2022-12-05T05:16:40.123Z,14.03
2022-12-05T05:19:10.461Z,12.77
2022-12-05T05:21:40.275Z,13.37
2022-12-05T05:24:09.733Z,12.23
2022-12-05T05:26:39.451Z,13.90
2022-12-05T05:29:07.108Z,13.90
2022-12-05T05:31:35.476Z,12.97
2022-12-05T05:34:09.144Z,14.10
2022-12-05T05:36:37.870Z,14.07
2022-12-05T05:39:09.319Z,13.43
2022-12-05T05:41:36.955Z,12.63
2022-12-05T05:44:04.873Z,11.83
2022-12-05T05:46:34.569Z,11.93
2022-12-05T05:49:02.920Z,11.10
2022-12-05T05:51:30.553Z,12.30
2022-12-05T05:53:58.989Z,12.23
2022-12-05T05:56:27.192Z,12.37
2022-12-05T05:58:57.486Z,13.23
2022-12-05T06:01:24.895Z,12.23
2022-12-05T06:03:52.494Z,12.37
2022-12-05T06:06:20.549Z,11.20
2022-12-05T06:08:48.506Z,12.63
2022-12-05T06:11:25.233Z,11.20
2022-12-05T06:14:00.903Z,10.07
2022-12-05T06:16:29.998Z,10.70
2022-12-05T06:18:58.253Z,11.13
2022-12-05T06:21:25.733Z,10.33
2022-12-05T06:23:54.175Z,9.07
2022-12-05T06:26:22.627Z,9.37
2022-12-05T06:28:50.211Z,8.80
2022-12-05T06:31:21.175Z,7.93
2022-12-05T06:33:49.251Z,8.53
2022-12-05T06:36:19.450Z,8.10
2022-12-05T06:38:46.874Z,7.63
2022-12-05T06:41:16.412Z,8.80
2022-12-05T06:43:44.175Z,9.00
2022-12-05T06:46:13.254Z,9.73
2022-12-05T06:48:40.867Z,10.50
2022-12-05T06:51:13.048Z,8.63
2022-12-05T06:53:40.986Z,9.20
2022-12-05T06:56:12.146Z,9.87
2022-12-05T06:58:40.501Z,10.43
2022-12-05T07:01:34.471Z,10.17
2022-12-05T07:04:02.870Z,9.63
2022-12-05T07:06:30.454Z,11.40
2022-12-05T07:08:58.026Z,10.50
2022-12-05T07:11:25.715Z,9.13
2022-12-05T07:13:53.158Z,9.37
2022-12-05T07:16:20.657Z,10.67
2022-12-05T07:18:48.390Z,9.97
2022-12-05T07:21:16.954Z,9.37
2022-12-05T07:23:45.932Z,9.00
2022-12-05T07:26:16.499Z,9.77
2022-12-05T07:28:43.921Z,9.63
2022-12-05T07:31:18.999Z,10.47
2022-12-05T07:33:46.527Z,9.63
2022-12-05T07:36:16.795Z,8.17
2022-12-05T07:38:44.633Z,8.80
2022-12-05T07:41:29.224Z,9.33
2022-12-05T07:43:57.757Z,9.67
2022-12-05T07:46:26.403Z,9.87
2022-12-05T07:48:54.274Z,8.07
2022-12-05T07:51:22.206Z,8.97
2022-12-05T07:53:50.553Z,9.87
2022-12-05T07:56:18.791Z,10.07
2022-12-05T07:58:48.565Z,9.93
2022-12-05T08:01:20.344Z,9.43
2022-12-05T08:03:49.214Z,9.73
2022-12-05T08:06:19.738Z,9.53
2022-12-05T08:08:51.099Z,10.27
2022-12-05T08:11:21.099Z,10.93
2022-12-05T08:13:49.278Z,9.70
2022-12-05T08:16:22.501Z,10.53
2022-12-05T08:18:53.668Z,9.53
2022-12-05T08:21:21.172Z,9.43
2022-12-05T08:23:48.566Z,9.77
2022-12-05T08:26:24.677Z,9.10
2022-12-05T08:28:55.718Z,9.37
2022-12-05T08:31:24.750Z,8.47
2022-12-05T08:33:57.082Z,9.00
2022-12-05T08:36:28.392Z,9.37
2022-12-05T08:39:02.024Z,9.43
2022-12-05T08:41:30.308Z,7.90
2022-12-05T08:44:01.352Z,24.67
2022-12-05T08:46:30.008Z,10.53
2022-12-05T08:48:57.581Z,9.40
2022-12-05T08:51:25.187Z,9.97
2022-12-05T08:53:52.590Z,10.13
2022-12-05T08:56:25.005Z,9.33
2022-12-05T08:58:57.380Z,9.90
2022-12-05T09:01:31.924Z,8.73
2022-12-05T09:04:00.573Z,9.50
2022-12-05T09:06:29.440Z,9.40
2022-12-05T09:08:59.525Z,8.83
2022-12-05T09:11:30.877Z,8.83
2022-12-05T09:13:59.502Z,9.37
2022-12-05T09:16:36.608Z,8.30
2022-12-05T09:19:18.674Z,8.90
2022-12-05T09:21:46.253Z,9.03
2022-12-05T09:24:14.783Z,7.07
2022-12-05T09:26:43.526Z,8.47
2022-12-05T09:29:16.874Z,7.50
2022-12-05T09:31:47.028Z,8.37
2022-12-05T09:34:15.845Z,8.37
2022-12-05T09:36:43.816Z,7.90
2022-12-05T09:39:11.513Z,7.50
2022-12-05T09:42:06.068Z,7.77
2022-12-05T09:45:04.243Z,8.70
2022-12-05T09:47:50.351Z,8.33
2022-12-05T09:50:29.958Z,8.60
2022-12-05T09:53:11.905Z,7.77
2022-12-05T09:56:00.955Z,8.07
2022-12-05T09:58:45.844Z,10.27
2022-12-05T10:01:22.218Z,8.30
2022-12-05T10:04:27.081Z,7.93
2022-12-05T10:07:16.327Z,8.73
2022-12-05T10:10:21.219Z,9.67
2022-12-05T10:13:22.723Z,8.87
2022-12-05T10:15:55.687Z,8.30
2022-12-05T10:18:55.070Z,11.20
2022-12-05T10:21:33.802Z,12.73
2022-12-05T10:24:04.142Z,16.83
2022-12-05T10:26:38.799Z,14.57
2022-12-05T10:29:15.266Z,10.33
2022-12-05T10:31:45.121Z,9.40
2022-12-05T10:34:16.925Z,8.03
2022-12-05T10:37:10.112Z,8.57
2022-12-05T10:39:38.491Z,8.63
2022-12-05T10:42:09.258Z,7.90
2022-12-05T10:44:37.198Z,6.27
2022-12-05T10:47:05.008Z,6.43
2022-12-05T10:49:34.231Z,8.43
2022-12-05T10:52:02.172Z,6.63
2022-12-05T10:54:32.778Z,5.40
2022-12-05T10:57:00.421Z,6.00
2022-12-05T10:59:45.736Z,6.63
2022-12-05T11:02:30.619Z,7.20
2022-12-05T11:04:59.533Z,6.73
2022-12-05T11:07:35.326Z,5.97
2022-12-05T11:10:23.561Z,5.50
2022-12-05T11:12:58.666Z,5.53
2022-12-05T11:15:31.431Z,6.40
2022-12-05T11:18:38.292Z,4.10
2022-12-05T11:21:11.497Z,4.97
2022-12-05T11:23:39.663Z,4.77
2022-12-05T11:26:35.783Z,5.23
2022-12-05T11:29:04.702Z,5.23
2022-12-05T11:31:32.256Z,5.00
2022-12-05T11:34:23.067Z,4.70
2022-12-05T11:37:03.007Z,6.47
2022-12-05T11:39:30.321Z,4.17
2022-12-05T11:42:16.119Z,5.27
2022-12-05T11:44:55.702Z,19.33
2022-12-05T11:47:56.365Z,5.33
2022-12-05T11:50:50.208Z,6.57
2022-12-05T11:53:36.793Z,5.60
2022-12-05T11:56:16.522Z,6.67
2022-12-05T11:59:08.515Z,5.77
2022-12-05T12:01:55.113Z,5.87
2022-12-05T12:04:31.275Z,5.83
2022-12-05T12:07:43.570Z,6.23
2022-12-05T12:10:48.517Z,7.03
2022-12-05T12:13:41.189Z,8.00
2022-12-05T12:16:40.891Z,9.17
2022-12-05T12:19:17.041Z,6.50
2022-12-05T12:22:00.539Z,6.13
2022-12-05T12:24:34.002Z,6.67
2022-12-05T12:27:24.831Z,6.77
2022-12-05T12:30:36.894Z,7.03
2022-12-05T12:33:27.604Z,7.93
2022-12-05T12:36:07.660Z,10.97
2022-12-05T12:38:40.944Z,17.67
2022-12-05T12:41:40.926Z,13.70
2022-12-05T12:44:23.681Z,9.53
2022-12-05T12:47:04.062Z,6.67
2022-12-05T12:50:13.974Z,6.50
2022-12-05T12:53:19.611Z,5.43
2022-12-05T12:55:56.135Z,5.87
2022-12-05T12:58:35.852Z,6.50
2022-12-05T13:01:16.591Z,5.13
2022-12-05T13:04:02.943Z,6.03
2022-12-05T13:06:40.631Z,5.33
2022-12-05T13:09:18.264Z,6.00
2022-12-05T13:11:48.432Z,6.00
2022-12-05T13:14:20.162Z,6.60
2022-12-05T13:16:50.781Z,7.77
2022-12-05T13:19:30.559Z,7.50
2022-12-05T13:21:59.365Z,7.20
2022-12-05T13:24:28.722Z,6.93
2022-12-05T13:27:02.455Z,8.43
2022-12-05T13:29:40.438Z,7.73
2022-12-05T13:32:29.416Z,7.47
2022-12-05T13:35:09.755Z,9.10
2022-12-05T13:38:03.366Z,10.77
2022-12-05T13:40:57.518Z,9.33
2022-12-05T13:43:27.934Z,8.13
2022-12-05T13:46:08.978Z,7.83
2022-12-05T13:48:44.122Z,23.13
2022-12-05T13:51:25.438Z,9.83
2022-12-05T13:54:05.222Z,9.47
2022-12-05T13:57:28.070Z,12.87
2022-12-05T14:00:05.930Z,12.53
2022-12-05T14:02:46.030Z,16.13
2022-12-05T14:05:18.683Z,15.33
2022-12-05T14:07:57.473Z,15.77
2022-12-05T14:10:28.997Z,14.47
2022-12-05T14:13:01.811Z,14.60
2022-12-05T14:15:29.847Z,46.37
2022-12-05T14:18:25.321Z,43.83
2022-12-05T14:21:17.376Z,15.00
2022-12-05T14:23:56.211Z,10.63
2022-12-05T14:26:58.882Z,9.50
2022-12-05T14:29:52.909Z,8.93
2022-12-05T14:32:33.880Z,9.67
2022-12-05T14:35:01.172Z,10.23
2022-12-05T14:37:32.914Z,8.03
2022-12-05T14:40:02.681Z,7.77
2022-12-05T14:42:44.003Z,8.67
2022-12-05T14:45:40.776Z,8.47
2022-12-05T14:48:13.643Z,11.23
2022-12-05T14:50:42.823Z,9.27
2022-12-05T14:53:22.162Z,9.90
2022-12-05T14:56:01.321Z,22.10
2022-12-05T14:58:34.816Z,34.13
2022-12-05T15:01:07.835Z,18.17
2022-12-05T15:03:42.275Z,15.40
2022-12-05T15:06:15.950Z,9.63
2022-12-05T15:08:49.894Z,10.80
2022-12-05T15:11:28.331Z,13.87
2022-12-05T15:14:01.394Z,10.17
2022-12-05T15:16:30.309Z,9.07
2022-12-05T15:19:07.132Z,8.60
2022-12-05T15:21:41.294Z,7.93
2022-12-05T15:24:16.419Z,9.30
2022-12-05T15:27:02.131Z,8.80
2022-12-05T15:29:32.957Z,11.50
2022-12-05T15:32:15.199Z,10.50
2022-12-05T15:35:04.970Z,8.30
2022-12-05T15:38:01.053Z,12.13
2022-12-05T15:40:37.530Z,9.33
2022-12-05T15:43:32.403Z,10.87
2022-12-05T15:46:25.944Z,9.10
2022-12-05T15:48:56.059Z,8.20
2022-12-05T15:51:37.520Z,8.80
2022-12-05T15:54:10.994Z,8.00
2022-12-05T15:56:43.034Z,8.30
2022-12-05T15:59:20.745Z,7.97
2022-12-05T16:01:52.978Z,8.17
2022-12-05T16:04:45.573Z,6.93
2022-12-05T16:07:14.985Z,7.30
2022-12-05T16:09:45.137Z,5.93
2022-12-05T16:12:19.976Z,5.97
2022-12-05T16:14:59.403Z,6.47
2022-12-05T16:17:30.429Z,6.40
2022-12-05T16:20:27.763Z,5.63
2022-12-05T16:23:16.695Z,5.57
2022-12-05T16:25:44.037Z,6.83
2022-12-05T16:28:16.269Z,6.13
2022-12-05T16:31:03.293Z,6.83
2022-12-05T16:33:31.849Z,13.13
2022-12-05T16:36:10.447Z,8.77
2022-12-05T16:38:38.400Z,7.40
2022-12-05T16:41:08.663Z,6.97
2022-12-05T16:43:37.400Z,8.90
2022-12-05T16:46:13.876Z,7.70
2022-12-05T16:48:44.362Z,6.23
2022-12-05T16:51:28.599Z,6.90
2022-12-05T16:53:56.577Z,7.57
2022-12-05T16:56:41.996Z,5.80
2022-12-05T16:59:30.550Z,6.77
2022-12-05T17:01:58.111Z,5.90
2022-12-05T17:04:25.626Z,6.83
2022-12-05T17:06:53.332Z,6.83
2022-12-05T17:09:21.202Z,7.67
2022-12-05T17:11:51.050Z,6.23
2022-12-05T17:14:19.202Z,7.40
2022-12-05T17:16:46.829Z,6.93
2022-12-05T17:19:14.329Z,7.10
2022-12-05T17:21:42.723Z,6.53
2022-12-05T17:24:16.346Z,7.17
2022-12-05T17:26:44.635Z,6.80
2022-12-05T17:29:12.113Z,6.53
2022-12-05T17:31:39.516Z,6.53
2022-12-05T17:34:15.811Z,6.93
2022-12-05T17:36:46.068Z,6.33
2022-12-05T17:39:13.527Z,6.40
2022-12-05T17:41:41.339Z,7.77
2022-12-05T17:44:12.717Z,8.17
2022-12-05T17:46:41.871Z,8.47
2022-12-05T17:49:13.561Z,7.03
2022-12-05T17:52:05.398Z,7.87
2022-12-05T17:54:30.418Z,8.07
2022-12-05T17:56:57.582Z,7.60
2022-12-05T17:59:24.759Z,7.57
2022-12-05T18:01:52.094Z,7.40
2022-12-05T18:04:23.054Z,6.47
2022-12-05T18:06:51.217Z,7.97
2022-12-05T18:09:18.638Z,7.07
2022-12-05T18:11:45.917Z,7.40
2022-12-05T18:14:13.242Z,7.10
2022-12-05T18:16:40.537Z,7.00
2022-12-05T18:19:09.165Z,8.43
2022-12-05T18:21:36.498Z,7.47
2022-12-05T18:24:04.034Z,7.13
2022-12-05T18:26:31.419Z,8.57
2022-12-05T18:28:59.314Z,7.07
2022-12-05T18:31:26.829Z,7.17
2022-12-05T18:33:54.235Z,6.50
2022-12-05T18:36:21.828Z,6.77
2022-12-05T18:38:51.687Z,8.23
2022-12-05T18:41:20.286Z,9.00
2022-12-05T18:43:47.708Z,8.57
2022-12-05T18:46:15.589Z,8.80
2022-12-05T18:48:47.233Z,8.10
2022-12-05T18:51:21.312Z,8.17
2022-12-05T18:53:54.074Z,8.97
2022-12-05T18:56:30.962Z,8.40
2022-12-05T18:59:02.537Z,7.80
2022-12-05T19:01:31.750Z,8.57
2022-12-05T19:04:00.281Z,7.93
2022-12-05T19:06:33.416Z,8.43
2022-12-05T19:09:04.736Z,9.77
2022-12-05T19:11:32.711Z,8.90
2022-12-05T19:14:02.035Z,9.03
2022-12-05T19:16:31.446Z,8.40
2022-12-05T19:19:00.849Z,11.30
2022-12-05T19:21:29.988Z,11.33
2022-12-05T19:23:57.751Z,10.47
2022-12-05T19:26:25.943Z,9.37
2022-12-05T19:28:53.483Z,10.40
2022-12-05T19:31:24.168Z,9.77
2022-12-05T19:33:54.105Z,8.93
2022-12-05T19:36:30.226Z,9.17
2022-12-05T19:38:57.838Z,7.67
2022-12-05T19:41:30.039Z,8.33
2022-12-05T19:44:01.715Z,9.47
2022-12-05T19:46:30.955Z,8.40
2022-12-05T19:49:00.586Z,7.63
2022-12-05T19:51:28.955Z,8.33
2022-12-05T19:53:58.880Z,8.37
2022-12-05T19:56:28.307Z,9.23
2022-12-05T19:58:57.099Z,8.33
2022-12-05T20:01:34.210Z,7.50
2022-12-05T20:04:10.846Z,7.70
2022-12-05T20:06:46.874Z,8.63
2022-12-05T20:09:17.677Z,8.83
2022-12-05T20:11:52.665Z,8.33
2022-12-05T20:14:23.296Z,9.90
2022-12-05T20:16:50.916Z,11.00
2022-12-05T20:19:18.292Z,9.80
2022-12-05T20:21:45.845Z,9.93
2022-12-05T20:24:13.044Z,10.73
2022-12-05T20:26:42.873Z,10.37
2022-12-05T20:29:10.857Z,9.20
2022-12-05T20:31:40.897Z,8.77
2022-12-05T20:34:13.987Z,8.23
2022-12-05T20:36:42.529Z,8.03
2022-12-05T20:39:15.751Z,7.67
2022-12-05T20:41:44.202Z,7.63
2022-12-05T20:44:14.481Z,7.67
2022-12-05T20:46:42.087Z,7.07
2022-12-05T20:49:09.777Z,7.07
2022-12-05T20:51:41.510Z,6.27
2022-12-05T20:54:09.214Z,6.77
2022-12-05T20:56:36.638Z,7.27
2022-12-05T20:59:06.807Z,7.63
2022-12-05T21:01:36.584Z,7.70
2022-12-05T21:04:06.412Z,7.83
2022-12-05T21:06:36.566Z,7.10
2022-12-05T21:09:06.321Z,6.00
2022-12-05T21:11:33.658Z,7.53
2022-12-05T21:14:01.880Z,6.50
2022-12-05T21:16:29.300Z,6.50
2022-12-05T21:18:58.523Z,5.60
2022-12-05T21:21:27.659Z,6.87
2022-12-05T21:23:57.803Z,7.97
2022-12-05T21:26:26.718Z,6.00
2022-12-05T21:28:54.621Z,6.67
2022-12-05T21:31:25.153Z,6.23
2022-12-05T21:33:58.283Z,6.67
2022-12-05T21:36:26.825Z,5.77
2022-12-05T21:38:56.475Z,5.77
2022-12-05T21:41:25.226Z,7.33
2022-12-05T21:43:55.233Z,7.10
2022-12-05T21:46:25.362Z,7.33
2022-12-05T21:48:53.205Z,5.73
2022-12-05T21:51:21.274Z,6.07
2022-12-05T21:53:49.136Z,6.50
2022-12-05T21:56:18.776Z,6.23
2022-12-05T21:58:47.244Z,5.43
2022-12-05T22:01:19.446Z,5.77
2022-12-05T22:03:47.383Z,6.87
2022-12-05T22:06:15.460Z,7.00
2022-12-05T22:08:43.292Z,7.50
2022-12-05T22:11:19.297Z,6.70
2022-12-05T22:13:48.824Z,6.77
2022-12-05T22:16:17.904Z,6.90
2022-12-05T22:18:46.455Z,6.33
2022-12-05T22:21:16.729Z,5.63
2022-12-05T22:23:44.183Z,5.73
2022-12-05T22:26:14.187Z,6.03
2022-12-05T22:28:41.546Z,5.67
2022-12-05T22:31:12.324Z,5.80
2022-12-05T22:33:40.104Z,6.30
2022-12-05T22:36:10.336Z,6.53
2022-12-05T22:38:41.197Z,7.53
2022-12-05T22:41:14.548Z,6.77
2022-12-05T22:43:43.563Z,6.37
2022-12-05T22:46:19.943Z,7.03
2022-12-05T22:48:49.003Z,6.80
2022-12-05T22:51:17.993Z,6.50
2022-12-05T22:53:46.245Z,6.50
2022-12-05T22:56:15.921Z,6.57
2022-12-05T22:58:44.134Z,7.40
2022-12-05T23:01:17.101Z,6.53
2022-12-05T23:03:46.582Z,6.77
2022-12-05T23:06:16.018Z,6.93
2022-12-05T23:08:45.270Z,7.07
2022-12-05T23:11:12.672Z,6.70
2022-12-05T23:13:40.551Z,6.70
2022-12-05T23:16:14.853Z,7.80
2022-12-05T23:18:48.619Z,7.77
2022-12-05T23:21:19.107Z,7.70
2022-12-05T23:23:48.603Z,7.03
2022-12-05T23:26:17.215Z,6.90
2022-12-05T23:28:44.917Z,6.73
2022-12-05T23:31:13.393Z,7.23
2022-12-05T23:33:41.001Z,7.80
2022-12-05T23:36:09.538Z,7.17
2022-12-05T23:38:38.553Z,6.97
2022-12-05T23:41:13.418Z,6.90
2022-12-05T23:43:42.447Z,7.37
2022-12-05T23:46:11.084Z,6.90
2022-12-05T23:48:38.850Z,6.20
2022-12-05T23:51:12.143Z,7.20
2022-12-05T23:53:41.964Z,6.73
2022-12-05T23:56:20.821Z,6.50
2022-12-05T23:58:48.241Z,6.03
